sensor_id;sensor_type;location;lat;lon;timestamp;temperature;humidity
8487;DHT22;4280;50.534;8.708;2024-03-25T00:01:33;6.20;1.00
8487;DHT22;4280;50.534;8.708;2024-03-25T00:03:59;6.20;1.00
8487;DHT22;4280;50.534;8.708;2024-03-25T00:06:25;6.20;1.00
8487;DHT22;4280;50.534;8.708;2024-03-25T00:08:50;6.10;1.00
8487;DHT22;4280;50.534;8.708;2024-03-25T00:11:16;6.10;1.00
8487;DHT22;4280;50.534;8.708;2024-03-25T00:13:42;6.10;1.00
8487;DHT22;4280;50.534;8.708;2024-03-25T00:16:07;6.20;1.00
8487;DHT22;4280;50.534;8.708;2024-03-25T00:18:33;6.20;1.00
8487;DHT22;4280;50.534;8.708;2024-03-25T00:20:59;6.20;1.00
8487;DHT22;4280;50.534;8.708;2024-03-25T00:23:24;6.10;1.00
8487;DHT22;4280;50.534;8.708;2024-03-25T00:25:50;6.10;1.00
8487;DHT22;4280;50.534;8.708;2024-03-25T00:28:17;6.10;1.00
8487;DHT22;4280;50.534;8.708;2024-03-25T00:30:44;6.00;1.00
8487;DHT22;4280;50.534;8.708;2024-03-25T00:33:10;5.90;1.00
8487;DHT22;4280;50.534;8.708;2024-03-25T00:35:36;6.00;1.00
8487;DHT22;4280;50.534;8.708;2024-03-25T00:38:02;6.00;1.00
8487;DHT22;4280;50.534;8.708;2024-03-25T00:40:29;6.00;1.00
8487;DHT22;4280;50.534;8.708;2024-03-25T00:42:55;6.00;1.00
8487;DHT22;4280;50.534;8.708;2024-03-25T00:45:21;6.20;1.00
8487;DHT22;4280;50.534;8.708;2024-03-25T00:47:47;6.20;1.00
8487;DHT22;4280;50.534;8.708;2024-03-25T00:50:13;6.10;1.00
8487;DHT22;4280;50.534;8.708;2024-03-25T00:52:40;6.10;1.00
8487;DHT22;4280;50.534;8.708;2024-03-25T00:55:06;6.00;1.00
8487;DHT22;4280;50.534;8.708;2024-03-25T00:57:33;6.00;1.00
8487;DHT22;4280;50.534;8.708;2024-03-25T00:59:59;6.00;1.00
8487;DHT22;4280;50.534;8.708;2024-03-25T01:02:25;6.00;1.00
8487;DHT22;4280;50.534;8.708;2024-03-25T01:04:52;5.90;1.00
8487;DHT22;4280;50.534;8.708;2024-03-25T01:07:19;5.90;1.00
8487;DHT22;4280;50.534;8.708;2024-03-25T01:09:45;5.90;1.00
8487;DHT22;4280;50.534;8.708;2024-03-25T01:12:11;5.90;1.00
8487;DHT22;4280;50.534;8.708;2024-03-25T01:14:36;5.90;1.00
8487;DHT22;4280;50.534;8.708;2024-03-25T01:17:02;5.80;1.00
8487;DHT22;4280;50.534;8.708;2024-03-25T01:19:28;5.80;1.00
8487;DHT22;4280;50.534;8.708;2024-03-25T01:21:54;5.80;1.00
8487;DHT22;4280;50.534;8.708;2024-03-25T01:24:20;5.80;1.00
8487;DHT22;4280;50.534;8.708;2024-03-25T01:26:46;5.80;1.00
8487;DHT22;4280;50.534;8.708;2024-03-25T01:29:11;5.80;1.00
8487;DHT22;4280;50.534;8.708;2024-03-25T01:31:38;5.80;1.00
8487;DHT22;4280;50.534;8.708;2024-03-25T01:34:03;5.70;1.00
8487;DHT22;4280;50.534;8.708;2024-03-25T01:36:29;5.60;1.00
8487;DHT22;4280;50.534;8.708;2024-03-25T01:38:55;5.70;1.00
8487;DHT22;4280;50.534;8.708;2024-03-25T01:41:22;5.60;1.00
8487;DHT22;4280;50.534;8.708;2024-03-25T01:43:48;5.60;1.00
8487;DHT22;4280;50.534;8.708;2024-03-25T01:46:16;5.60;1.00
8487;DHT22;4280;50.534;8.708;2024-03-25T01:48:43;5.60;1.00
8487;DHT22;4280;50.534;8.708;2024-03-25T01:51:11;5.60;1.00
8487;DHT22;4280;50.534;8.708;2024-03-25T01:53:39;5.50;1.00
8487;DHT22;4280;50.534;8.708;2024-03-25T01:56:05;5.60;1.00
8487;DHT22;4280;50.534;8.708;2024-03-25T01:58:31;5.40;1.00
8487;DHT22;4280;50.534;8.708;2024-03-25T02:00:58;5.40;1.00
8487;DHT22;4280;50.534;8.708;2024-03-25T02:03:29;5.30;1.00
8487;DHT22;4280;50.534;8.708;2024-03-25T02:06:02;5.30;1.00
8487;DHT22;4280;50.534;8.708;2024-03-25T02:08:34;5.20;1.00
8487;DHT22;4280;50.534;8.708;2024-03-25T02:11:00;5.10;1.00
8487;DHT22;4280;50.534;8.708;2024-03-25T02:13:27;5.00;1.00
8487;DHT22;4280;50.534;8.708;2024-03-25T02:15:52;4.90;1.00
8487;DHT22;4280;50.534;8.708;2024-03-25T02:18:20;4.80;1.00
8487;DHT22;4280;50.534;8.708;2024-03-25T02:20:46;4.60;1.00
8487;DHT22;4280;50.534;8.708;2024-03-25T02:23:13;4.40;1.00
8487;DHT22;4280;50.534;8.708;2024-03-25T02:25:42;4.50;1.00
8487;DHT22;4280;50.534;8.708;2024-03-25T02:28:08;4.50;1.00
8487;DHT22;4280;50.534;8.708;2024-03-25T02:30:34;4.50;1.00
8487;DHT22;4280;50.534;8.708;2024-03-25T02:33:02;4.70;1.00
8487;DHT22;4280;50.534;8.708;2024-03-25T02:35:28;4.60;1.00
8487;DHT22;4280;50.534;8.708;2024-03-25T02:37:54;4.70;1.00
8487;DHT22;4280;50.534;8.708;2024-03-25T02:40:21;4.80;1.00
8487;DHT22;4280;50.534;8.708;2024-03-25T02:42:48;4.80;1.00
8487;DHT22;4280;50.534;8.708;2024-03-25T02:45:14;4.70;1.00
8487;DHT22;4280;50.534;8.708;2024-03-25T02:47:39;4.70;1.00
8487;DHT22;4280;50.534;8.708;2024-03-25T02:50:05;4.70;1.00
8487;DHT22;4280;50.534;8.708;2024-03-25T02:52:31;4.90;1.00
8487;DHT22;4280;50.534;8.708;2024-03-25T02:54:57;4.90;1.00
8487;DHT22;4280;50.534;8.708;2024-03-25T02:57:23;5.00;1.00
8487;DHT22;4280;50.534;8.708;2024-03-25T02:59:49;5.00;1.00
8487;DHT22;4280;50.534;8.708;2024-03-25T03:02:14;5.00;1.00
8487;DHT22;4280;50.534;8.708;2024-03-25T03:04:40;5.00;1.00
8487;DHT22;4280;50.534;8.708;2024-03-25T03:07:06;5.00;1.00
8487;DHT22;4280;50.534;8.708;2024-03-25T03:09:32;5.00;1.00
8487;DHT22;4280;50.534;8.708;2024-03-25T03:11:58;5.00;1.00
8487;DHT22;4280;50.534;8.708;2024-03-25T03:14:23;5.10;1.00
8487;DHT22;4280;50.534;8.708;2024-03-25T03:16:49;5.10;1.00
8487;DHT22;4280;50.534;8.708;2024-03-25T03:19:20;5.20;1.00
8487;DHT22;4280;50.534;8.708;2024-03-25T03:21:54;5.30;1.00
8487;DHT22;4280;50.534;8.708;2024-03-25T03:24:20;5.30;1.00
8487;DHT22;4280;50.534;8.708;2024-03-25T03:26:46;5.20;1.00
8487;DHT22;4280;50.534;8.708;2024-03-25T03:29:12;5.20;1.00
8487;DHT22;4280;50.534;8.708;2024-03-25T03:31:37;5.10;1.00
8487;DHT22;4280;50.534;8.708;2024-03-25T03:34:03;5.30;1.00
8487;DHT22;4280;50.534;8.708;2024-03-25T03:36:29;5.20;1.00
8487;DHT22;4280;50.534;8.708;2024-03-25T03:38:55;5.20;1.00
8487;DHT22;4280;50.534;8.708;2024-03-25T03:41:21;5.20;1.00
8487;DHT22;4280;50.534;8.708;2024-03-25T03:43:46;5.20;1.00
8487;DHT22;4280;50.534;8.708;2024-03-25T03:46:12;5.20;1.00
8487;DHT22;4280;50.534;8.708;2024-03-25T03:48:38;5.20;1.00
8487;DHT22;4280;50.534;8.708;2024-03-25T03:51:05;5.20;1.00
8487;DHT22;4280;50.534;8.708;2024-03-25T03:53:32;5.30;1.00
8487;DHT22;4280;50.534;8.708;2024-03-25T03:56:03;5.30;1.00
8487;DHT22;4280;50.534;8.708;2024-03-25T03:58:31;5.30;1.00
8487;DHT22;4280;50.534;8.708;2024-03-25T04:00:56;5.30;1.00
8487;DHT22;4280;50.534;8.708;2024-03-25T04:03:22;5.30;1.00
8487;DHT22;4280;50.534;8.708;2024-03-25T04:05:48;5.30;1.00
8487;DHT22;4280;50.534;8.708;2024-03-25T04:08:14;5.30;1.00
8487;DHT22;4280;50.534;8.708;2024-03-25T04:10:40;5.30;1.00
8487;DHT22;4280;50.534;8.708;2024-03-25T04:13:07;5.30;1.00
8487;DHT22;4280;50.534;8.708;2024-03-25T04:15:40;5.30;1.00
8487;DHT22;4280;50.534;8.708;2024-03-25T04:18:06;5.30;1.00
8487;DHT22;4280;50.534;8.708;2024-03-25T04:20:39;5.30;1.00
8487;DHT22;4280;50.534;8.708;2024-03-25T04:23:06;5.30;1.00
8487;DHT22;4280;50.534;8.708;2024-03-25T04:25:33;5.30;1.00
8487;DHT22;4280;50.534;8.708;2024-03-25T04:27:59;5.20;1.00
8487;DHT22;4280;50.534;8.708;2024-03-25T04:30:25;5.20;1.00
8487;DHT22;4280;50.534;8.708;2024-03-25T04:32:51;5.20;1.00
8487;DHT22;4280;50.534;8.708;2024-03-25T04:35:17;5.10;1.00
8487;DHT22;4280;50.534;8.708;2024-03-25T04:37:42;5.10;1.00
8487;DHT22;4280;50.534;8.708;2024-03-25T04:40:09;5.10;1.00
8487;DHT22;4280;50.534;8.708;2024-03-25T04:42:35;5.10;1.00
8487;DHT22;4280;50.534;8.708;2024-03-25T04:45:01;5.00;1.00
8487;DHT22;4280;50.534;8.708;2024-03-25T04:47:27;5.00;1.00
8487;DHT22;4280;50.534;8.708;2024-03-25T04:49:53;4.90;1.00
8487;DHT22;4280;50.534;8.708;2024-03-25T04:52:19;4.80;1.00
8487;DHT22;4280;50.534;8.708;2024-03-25T04:54:49;4.80;1.00
8487;DHT22;4280;50.534;8.708;2024-03-25T04:57:14;4.80;1.00
8487;DHT22;4280;50.534;8.708;2024-03-25T04:59:40;4.80;1.00
8487;DHT22;4280;50.534;8.708;2024-03-25T05:02:06;4.80;1.00
8487;DHT22;4280;50.534;8.708;2024-03-25T05:04:32;4.80;1.00
8487;DHT22;4280;50.534;8.708;2024-03-25T05:06:58;4.80;1.00
8487;DHT22;4280;50.534;8.708;2024-03-25T05:09:23;4.70;1.00
8487;DHT22;4280;50.534;8.708;2024-03-25T05:11:49;4.60;1.00
8487;DHT22;4280;50.534;8.708;2024-03-25T05:14:15;4.60;1.00
8487;DHT22;4280;50.534;8.708;2024-03-25T05:16:41;4.60;1.00
8487;DHT22;4280;50.534;8.708;2024-03-25T05:19:07;4.60;1.00
8487;DHT22;4280;50.534;8.708;2024-03-25T05:21:32;4.60;1.00
8487;DHT22;4280;50.534;8.708;2024-03-25T05:23:58;4.50;1.00
8487;DHT22;4280;50.534;8.708;2024-03-25T05:26:24;4.50;1.00
8487;DHT22;4280;50.534;8.708;2024-03-25T05:28:54;4.50;1.00
8487;DHT22;4280;50.534;8.708;2024-03-25T05:31:20;4.50;1.00
8487;DHT22;4280;50.534;8.708;2024-03-25T05:33:46;4.50;1.00
8487;DHT22;4280;50.534;8.708;2024-03-25T05:36:11;4.50;1.00
8487;DHT22;4280;50.534;8.708;2024-03-25T05:38:37;4.60;1.00
8487;DHT22;4280;50.534;8.708;2024-03-25T05:41:03;4.60;1.00
8487;DHT22;4280;50.534;8.708;2024-03-25T05:43:29;4.50;1.00
8487;DHT22;4280;50.534;8.708;2024-03-25T05:45:55;4.50;1.00
8487;DHT22;4280;50.534;8.708;2024-03-25T05:48:24;4.50;1.00
8487;DHT22;4280;50.534;8.708;2024-03-25T05:51:06;4.60;1.00
8487;DHT22;4280;50.534;8.708;2024-03-25T05:53:35;4.70;1.00
8487;DHT22;4280;50.534;8.708;2024-03-25T05:56:01;4.70;1.00
8487;DHT22;4280;50.534;8.708;2024-03-25T05:58:27;4.80;1.00
8487;DHT22;4280;50.534;8.708;2024-03-25T06:00:53;4.80;1.00
8487;DHT22;4280;50.534;8.708;2024-03-25T06:03:19;4.80;1.00
8487;DHT22;4280;50.534;8.708;2024-03-25T06:05:45;4.80;1.00
8487;DHT22;4280;50.534;8.708;2024-03-25T06:08:11;4.80;1.00
8487;DHT22;4280;50.534;8.708;2024-03-25T06:11:06;4.90;1.00
8487;DHT22;4280;50.534;8.708;2024-03-25T06:13:32;4.80;1.00
8487;DHT22;4280;50.534;8.708;2024-03-25T06:15:58;4.70;1.00
8487;DHT22;4280;50.534;8.708;2024-03-25T06:18:24;4.70;1.00
8487;DHT22;4280;50.534;8.708;2024-03-25T06:20:50;4.80;1.00
8487;DHT22;4280;50.534;8.708;2024-03-25T06:23:28;4.90;1.00
8487;DHT22;4280;50.534;8.708;2024-03-25T06:25:55;4.80;1.00
8487;DHT22;4280;50.534;8.708;2024-03-25T06:28:21;4.90;1.00
8487;DHT22;4280;50.534;8.708;2024-03-25T06:30:48;4.80;1.00
8487;DHT22;4280;50.534;8.708;2024-03-25T06:33:33;4.80;1.00
8487;DHT22;4280;50.534;8.708;2024-03-25T06:36:18;4.80;1.00
8487;DHT22;4280;50.534;8.708;2024-03-25T06:38:44;4.80;1.00
8487;DHT22;4280;50.534;8.708;2024-03-25T06:41:11;4.90;1.00
8487;DHT22;4280;50.534;8.708;2024-03-25T06:43:37;5.00;1.00
8487;DHT22;4280;50.534;8.708;2024-03-25T06:46:06;5.20;1.00
8487;DHT22;4280;50.534;8.708;2024-03-25T06:48:33;5.40;1.00
8487;DHT22;4280;50.534;8.708;2024-03-25T06:51:00;5.40;1.00
8487;DHT22;4280;50.534;8.708;2024-03-25T06:53:28;5.40;1.00
8487;DHT22;4280;50.534;8.708;2024-03-25T06:55:55;5.50;1.00
8487;DHT22;4280;50.534;8.708;2024-03-25T06:58:23;5.40;1.00
8487;DHT22;4280;50.534;8.708;2024-03-25T07:00:50;5.50;1.00
8487;DHT22;4280;50.534;8.708;2024-03-25T07:03:17;5.60;1.00
8487;DHT22;4280;50.534;8.708;2024-03-25T07:05:47;5.60;1.00
8487;DHT22;4280;50.534;8.708;2024-03-25T07:08:13;5.70;1.00
8487;DHT22;4280;50.534;8.708;2024-03-25T07:10:41;5.70;1.00
8487;DHT22;4280;50.534;8.708;2024-03-25T07:13:07;5.70;1.00
8487;DHT22;4280;50.534;8.708;2024-03-25T07:15:33;5.70;1.00
8487;DHT22;4280;50.534;8.708;2024-03-25T07:17:59;5.80;1.00
8487;DHT22;4280;50.534;8.708;2024-03-25T07:20:25;5.80;1.00
8487;DHT22;4280;50.534;8.708;2024-03-25T07:22:55;5.70;1.00
8487;DHT22;4280;50.534;8.708;2024-03-25T07:25:24;5.70;1.00
8487;DHT22;4280;50.534;8.708;2024-03-25T07:27:50;5.70;1.00
8487;DHT22;4280;50.534;8.708;2024-03-25T07:30:17;5.80;1.00
8487;DHT22;4280;50.534;8.708;2024-03-25T07:32:43;5.90;1.00
8487;DHT22;4280;50.534;8.708;2024-03-25T07:35:11;5.90;1.00
8487;DHT22;4280;50.534;8.708;2024-03-25T07:37:37;6.00;1.00
8487;DHT22;4280;50.534;8.708;2024-03-25T07:40:03;6.30;1.00
8487;DHT22;4280;50.534;8.708;2024-03-25T07:42:31;5.90;1.00
8487;DHT22;4280;50.534;8.708;2024-03-25T07:44:57;5.80;1.00
8487;DHT22;4280;50.534;8.708;2024-03-25T07:47:22;5.80;1.00
8487;DHT22;4280;50.534;8.708;2024-03-25T07:49:48;5.90;1.00
8487;DHT22;4280;50.534;8.708;2024-03-25T07:52:14;5.90;1.00
8487;DHT22;4280;50.534;8.708;2024-03-25T07:54:40;5.80;1.00
8487;DHT22;4280;50.534;8.708;2024-03-25T07:57:12;5.90;1.00
8487;DHT22;4280;50.534;8.708;2024-03-25T07:59:37;6.00;1.00
8487;DHT22;4280;50.534;8.708;2024-03-25T08:02:03;6.30;1.00
8487;DHT22;4280;50.534;8.708;2024-03-25T08:04:29;6.50;1.00
8487;DHT22;4280;50.534;8.708;2024-03-25T08:06:55;6.30;1.00
8487;DHT22;4280;50.534;8.708;2024-03-25T08:09:21;6.70;1.00
8487;DHT22;4280;50.534;8.708;2024-03-25T08:11:46;6.40;1.00
8487;DHT22;4280;50.534;8.708;2024-03-25T08:14:12;6.60;1.00
8487;DHT22;4280;50.534;8.708;2024-03-25T08:16:38;7.00;1.00
8487;DHT22;4280;50.534;8.708;2024-03-25T08:19:04;7.00;1.00
8487;DHT22;4280;50.534;8.708;2024-03-25T08:21:30;6.90;1.00
8487;DHT22;4280;50.534;8.708;2024-03-25T08:23:55;7.00;1.00
8487;DHT22;4280;50.534;8.708;2024-03-25T08:26:21;7.20;1.00
8487;DHT22;4280;50.534;8.708;2024-03-25T08:28:47;7.90;1.00
8487;DHT22;4280;50.534;8.708;2024-03-25T08:31:14;7.70;1.00
8487;DHT22;4280;50.534;8.708;2024-03-25T08:33:41;7.50;1.00
8487;DHT22;4280;50.534;8.708;2024-03-25T08:36:07;7.50;1.00
8487;DHT22;4280;50.534;8.708;2024-03-25T08:38:33;7.30;1.00
8487;DHT22;4280;50.534;8.708;2024-03-25T08:40:59;7.20;1.00
8487;DHT22;4280;50.534;8.708;2024-03-25T08:43:25;7.30;1.00
8487;DHT22;4280;50.534;8.708;2024-03-25T08:45:50;7.70;1.00
8487;DHT22;4280;50.534;8.708;2024-03-25T08:48:16;7.10;1.00
8487;DHT22;4280;50.534;8.708;2024-03-25T08:50:42;7.00;1.00
8487;DHT22;4280;50.534;8.708;2024-03-25T08:53:08;7.00;1.00
8487;DHT22;4280;50.534;8.708;2024-03-25T08:55:34;7.30;1.00
8487;DHT22;4280;50.534;8.708;2024-03-25T08:57:59;7.30;1.00
8487;DHT22;4280;50.534;8.708;2024-03-25T09:00:29;7.20;1.00
8487;DHT22;4280;50.534;8.708;2024-03-25T09:02:54;7.00;1.00
8487;DHT22;4280;50.534;8.708;2024-03-25T09:05:21;7.40;1.00
8487;DHT22;4280;50.534;8.708;2024-03-25T09:07:50;7.80;1.00
8487;DHT22;4280;50.534;8.708;2024-03-25T09:10:20;8.60;1.00
8487;DHT22;4280;50.534;8.708;2024-03-25T09:13:05;8.40;1.00
8487;DHT22;4280;50.534;8.708;2024-03-25T09:15:31;7.80;1.00
8487;DHT22;4280;50.534;8.708;2024-03-25T09:17:57;8.10;1.00
8487;DHT22;4280;50.534;8.708;2024-03-25T09:20:22;7.20;1.00
8487;DHT22;4280;50.534;8.708;2024-03-25T09:22:49;7.80;1.00
8487;DHT22;4280;50.534;8.708;2024-03-25T09:25:15;8.00;1.00
8487;DHT22;4280;50.534;8.708;2024-03-25T09:27:45;7.40;1.00
8487;DHT22;4280;50.534;8.708;2024-03-25T09:30:11;7.60;1.00
8487;DHT22;4280;50.534;8.708;2024-03-25T09:32:37;8.30;1.00
8487;DHT22;4280;50.534;8.708;2024-03-25T09:35:04;8.60;1.00
8487;DHT22;4280;50.534;8.708;2024-03-25T09:37:30;8.20;1.00
8487;DHT22;4280;50.534;8.708;2024-03-25T09:39:58;8.10;1.00
8487;DHT22;4280;50.534;8.708;2024-03-25T09:42:26;7.90;1.00
8487;DHT22;4280;50.534;8.708;2024-03-25T09:44:54;8.50;1.00
8487;DHT22;4280;50.534;8.708;2024-03-25T09:47:21;7.90;1.00
8487;DHT22;4280;50.534;8.708;2024-03-25T09:49:48;7.80;1.00
8487;DHT22;4280;50.534;8.708;2024-03-25T09:52:17;7.90;1.00
8487;DHT22;4280;50.534;8.708;2024-03-25T09:54:44;7.90;1.00
8487;DHT22;4280;50.534;8.708;2024-03-25T09:57:10;8.00;1.00
8487;DHT22;4280;50.534;8.708;2024-03-25T09:59:36;8.30;1.00
8487;DHT22;4280;50.534;8.708;2024-03-25T10:02:03;8.00;1.00
8487;DHT22;4280;50.534;8.708;2024-03-25T10:04:29;8.60;1.00
8487;DHT22;4280;50.534;8.708;2024-03-25T10:06:55;9.60;1.00
8487;DHT22;4280;50.534;8.708;2024-03-25T10:09:22;9.60;1.00
8487;DHT22;4280;50.534;8.708;2024-03-25T10:11:49;9.10;1.00
8487;DHT22;4280;50.534;8.708;2024-03-25T10:14:16;8.30;1.00
8487;DHT22;4280;50.534;8.708;2024-03-25T10:16:43;8.40;1.00
8487;DHT22;4280;50.534;8.708;2024-03-25T10:19:09;8.90;1.00
8487;DHT22;4280;50.534;8.708;2024-03-25T10:21:35;8.70;1.00
8487;DHT22;4280;50.534;8.708;2024-03-25T10:24:01;9.40;1.00
8487;DHT22;4280;50.534;8.708;2024-03-25T10:26:32;9.70;1.00
8487;DHT22;4280;50.534;8.708;2024-03-25T10:29:05;9.60;1.00
8487;DHT22;4280;50.534;8.708;2024-03-25T10:31:34;9.00;1.00
8487;DHT22;4280;50.534;8.708;2024-03-25T10:34:00;8.90;1.00
8487;DHT22;4280;50.534;8.708;2024-03-25T10:36:26;9.10;1.00
8487;DHT22;4280;50.534;8.708;2024-03-25T10:38:55;9.20;1.00
8487;DHT22;4280;50.534;8.708;2024-03-25T10:41:22;10.10;1.00
8487;DHT22;4280;50.534;8.708;2024-03-25T10:43:49;9.40;1.00
8487;DHT22;4280;50.534;8.708;2024-03-25T10:46:20;9.60;1.00
8487;DHT22;4280;50.534;8.708;2024-03-25T10:48:53;9.90;1.00
8487;DHT22;4280;50.534;8.708;2024-03-25T10:51:22;9.60;1.00
8487;DHT22;4280;50.534;8.708;2024-03-25T10:53:52;9.10;1.00
8487;DHT22;4280;50.534;8.708;2024-03-25T10:56:21;9.40;1.00
8487;DHT22;4280;50.534;8.708;2024-03-25T10:58:50;9.00;1.00
8487;DHT22;4280;50.534;8.708;2024-03-25T11:01:17;8.60;1.00
8487;DHT22;4280;50.534;8.708;2024-03-25T11:03:46;8.70;1.00
8487;DHT22;4280;50.534;8.708;2024-03-25T11:06:14;9.10;1.00
8487;DHT22;4280;50.534;8.708;2024-03-25T11:08:40;9.60;1.00
8487;DHT22;4280;50.534;8.708;2024-03-25T11:11:07;9.60;1.00
8487;DHT22;4280;50.534;8.708;2024-03-25T11:13:33;9.50;1.00
8487;DHT22;4280;50.534;8.708;2024-03-25T11:16:00;9.20;1.00
8487;DHT22;4280;50.534;8.708;2024-03-25T11:18:26;9.70;1.00
8487;DHT22;4280;50.534;8.708;2024-03-25T11:21:00;9.80;1.00
8487;DHT22;4280;50.534;8.708;2024-03-25T11:23:26;10.00;1.00
8487;DHT22;4280;50.534;8.708;2024-03-25T11:25:55;10.20;1.00
8487;DHT22;4280;50.534;8.708;2024-03-25T11:28:31;9.90;1.00
8487;DHT22;4280;50.534;8.708;2024-03-25T11:30:58;9.50;1.00
8487;DHT22;4280;50.534;8.708;2024-03-25T11:33:24;9.80;1.00
8487;DHT22;4280;50.534;8.708;2024-03-25T11:35:50;9.50;1.00
8487;DHT22;4280;50.534;8.708;2024-03-25T11:38:15;9.70;1.00
8487;DHT22;4280;50.534;8.708;2024-03-25T11:40:43;9.80;1.00
8487;DHT22;4280;50.534;8.708;2024-03-25T11:43:10;10.20;1.00
8487;DHT22;4280;50.534;8.708;2024-03-25T11:45:42;9.60;1.00
8487;DHT22;4280;50.534;8.708;2024-03-25T11:48:08;9.20;1.00
8487;DHT22;4280;50.534;8.708;2024-03-25T11:50:34;9.90;1.00
8487;DHT22;4280;50.534;8.708;2024-03-25T11:53:04;9.70;1.00
8487;DHT22;4280;50.534;8.708;2024-03-25T11:55:30;9.60;1.00
8487;DHT22;4280;50.534;8.708;2024-03-25T11:57:57;10.00;1.00
8487;DHT22;4280;50.534;8.708;2024-03-25T12:00:24;9.20;1.00
8487;DHT22;4280;50.534;8.708;2024-03-25T12:02:50;9.70;1.00
8487;DHT22;4280;50.534;8.708;2024-03-25T12:05:18;10.00;1.00
8487;DHT22;4280;50.534;8.708;2024-03-25T12:07:44;10.40;1.00
8487;DHT22;4280;50.534;8.708;2024-03-25T12:10:09;10.50;1.00
8487;DHT22;4280;50.534;8.708;2024-03-25T12:12:55;10.30;1.00
8487;DHT22;4280;50.534;8.708;2024-03-25T12:15:24;10.90;1.00
8487;DHT22;4280;50.534;8.708;2024-03-25T12:17:51;10.60;1.00
8487;DHT22;4280;50.534;8.708;2024-03-25T12:20:16;10.00;1.00
8487;DHT22;4280;50.534;8.708;2024-03-25T12:22:43;10.20;1.00
8487;DHT22;4280;50.534;8.708;2024-03-25T12:25:09;10.50;1.00
8487;DHT22;4280;50.534;8.708;2024-03-25T12:27:37;10.00;1.00
8487;DHT22;4280;50.534;8.708;2024-03-25T12:30:08;10.90;1.00
8487;DHT22;4280;50.534;8.708;2024-03-25T12:32:40;10.90;1.00
8487;DHT22;4280;50.534;8.708;2024-03-25T12:35:17;10.90;1.00
8487;DHT22;4280;50.534;8.708;2024-03-25T12:37:47;11.20;1.00
8487;DHT22;4280;50.534;8.708;2024-03-25T12:40:26;11.30;1.00
8487;DHT22;4280;50.534;8.708;2024-03-25T12:42:55;11.20;1.00
8487;DHT22;4280;50.534;8.708;2024-03-25T12:45:21;11.60;1.00
8487;DHT22;4280;50.534;8.708;2024-03-25T12:47:51;10.80;1.00
8487;DHT22;4280;50.534;8.708;2024-03-25T12:50:18;10.60;1.00
8487;DHT22;4280;50.534;8.708;2024-03-25T12:52:46;10.20;1.00
8487;DHT22;4280;50.534;8.708;2024-03-25T12:55:12;10.60;1.00
8487;DHT22;4280;50.534;8.708;2024-03-25T12:57:38;10.70;1.00
8487;DHT22;4280;50.534;8.708;2024-03-25T13:00:07;10.70;1.00
8487;DHT22;4280;50.534;8.708;2024-03-25T13:02:33;10.20;1.00
8487;DHT22;4280;50.534;8.708;2024-03-25T13:04:59;10.60;1.00
8487;DHT22;4280;50.534;8.708;2024-03-25T13:07:25;10.90;1.00
8487;DHT22;4280;50.534;8.708;2024-03-25T13:09:51;10.70;1.00
8487;DHT22;4280;50.534;8.708;2024-03-25T13:12:16;10.40;1.00
8487;DHT22;4280;50.534;8.708;2024-03-25T13:14:45;10.20;1.00
8487;DHT22;4280;50.534;8.708;2024-03-25T13:17:10;10.20;1.00
8487;DHT22;4280;50.534;8.708;2024-03-25T13:19:36;10.70;1.00
8487;DHT22;4280;50.534;8.708;2024-03-25T13:22:02;10.60;1.00
8487;DHT22;4280;50.534;8.708;2024-03-25T13:24:27;10.70;1.00
8487;DHT22;4280;50.534;8.708;2024-03-25T13:26:53;10.90;1.00
8487;DHT22;4280;50.534;8.708;2024-03-25T13:29:19;11.00;1.00
8487;DHT22;4280;50.534;8.708;2024-03-25T13:31:45;11.00;1.00
8487;DHT22;4280;50.534;8.708;2024-03-25T13:34:10;11.10;1.00
8487;DHT22;4280;50.534;8.708;2024-03-25T13:36:36;11.70;1.00
8487;DHT22;4280;50.534;8.708;2024-03-25T13:39:02;11.20;1.00
8487;DHT22;4280;50.534;8.708;2024-03-25T13:41:28;11.30;1.00
8487;DHT22;4280;50.534;8.708;2024-03-25T13:43:53;11.40;1.00
8487;DHT22;4280;50.534;8.708;2024-03-25T13:46:19;11.60;1.00
8487;DHT22;4280;50.534;8.708;2024-03-25T13:48:47;11.70;1.00
8487;DHT22;4280;50.534;8.708;2024-03-25T13:51:13;11.30;1.00
8487;DHT22;4280;50.534;8.708;2024-03-25T13:53:38;11.70;1.00
8487;DHT22;4280;50.534;8.708;2024-03-25T13:56:05;10.90;1.00
8487;DHT22;4280;50.534;8.708;2024-03-25T13:58:34;11.10;1.00
8487;DHT22;4280;50.534;8.708;2024-03-25T14:00:59;11.50;1.00
8487;DHT22;4280;50.534;8.708;2024-03-25T14:03:26;11.20;1.00
8487;DHT22;4280;50.534;8.708;2024-03-25T14:05:52;11.30;1.00
8487;DHT22;4280;50.534;8.708;2024-03-25T14:08:18;11.60;1.00
8487;DHT22;4280;50.534;8.708;2024-03-25T14:10:44;11.20;1.00
8487;DHT22;4280;50.534;8.708;2024-03-25T14:13:10;11.00;1.00
8487;DHT22;4280;50.534;8.708;2024-03-25T14:15:35;11.40;1.00
8487;DHT22;4280;50.534;8.708;2024-03-25T14:18:01;11.30;1.00
8487;DHT22;4280;50.534;8.708;2024-03-25T14:20:27;11.30;1.00
8487;DHT22;4280;50.534;8.708;2024-03-25T14:22:53;11.40;1.00
8487;DHT22;4280;50.534;8.708;2024-03-25T14:25:18;11.30;1.00
8487;DHT22;4280;50.534;8.708;2024-03-25T14:27:45;11.40;1.00
8487;DHT22;4280;50.534;8.708;2024-03-25T14:30:11;11.60;1.00
8487;DHT22;4280;50.534;8.708;2024-03-25T14:32:39;11.70;1.00
8487;DHT22;4280;50.534;8.708;2024-03-25T14:35:05;11.50;1.00
8487;DHT22;4280;50.534;8.708;2024-03-25T14:37:32;11.10;1.00
8487;DHT22;4280;50.534;8.708;2024-03-25T14:39:58;11.10;1.00
8487;DHT22;4280;50.534;8.708;2024-03-25T14:42:24;11.30;1.00
8487;DHT22;4280;50.534;8.708;2024-03-25T14:44:50;11.30;1.00
8487;DHT22;4280;50.534;8.708;2024-03-25T14:47:16;11.30;1.00
8487;DHT22;4280;50.534;8.708;2024-03-25T14:49:41;11.20;1.00
8487;DHT22;4280;50.534;8.708;2024-03-25T14:52:07;11.20;1.00
8487;DHT22;4280;50.534;8.708;2024-03-25T14:54:33;11.00;1.00
8487;DHT22;4280;50.534;8.708;2024-03-25T14:57:00;11.20;1.00
8487;DHT22;4280;50.534;8.708;2024-03-25T14:59:26;11.20;1.00
8487;DHT22;4280;50.534;8.708;2024-03-25T15:01:52;11.30;1.00
8487;DHT22;4280;50.534;8.708;2024-03-25T15:04:18;11.10;1.00
8487;DHT22;4280;50.534;8.708;2024-03-25T15:06:44;11.20;1.00
8487;DHT22;4280;50.534;8.708;2024-03-25T15:09:09;11.00;1.00
8487;DHT22;4280;50.534;8.708;2024-03-25T15:11:35;11.00;1.00
8487;DHT22;4280;50.534;8.708;2024-03-25T15:14:01;11.10;1.00
8487;DHT22;4280;50.534;8.708;2024-03-25T15:16:27;11.30;1.00
8487;DHT22;4280;50.534;8.708;2024-03-25T15:18:53;11.40;1.00
8487;DHT22;4280;50.534;8.708;2024-03-25T15:21:19;11.20;1.00
8487;DHT22;4280;50.534;8.708;2024-03-25T15:23:44;10.90;1.00
8487;DHT22;4280;50.534;8.708;2024-03-25T15:26:10;10.90;1.00
8487;DHT22;4280;50.534;8.708;2024-03-25T15:28:36;11.00;1.00
8487;DHT22;4280;50.534;8.708;2024-03-25T15:31:01;10.90;1.00
8487;DHT22;4280;50.534;8.708;2024-03-25T15:33:27;11.00;1.00
8487;DHT22;4280;50.534;8.708;2024-03-25T15:35:53;11.00;1.00
8487;DHT22;4280;50.534;8.708;2024-03-25T15:38:18;10.80;1.00
8487;DHT22;4280;50.534;8.708;2024-03-25T15:40:44;10.70;1.00
8487;DHT22;4280;50.534;8.708;2024-03-25T15:43:16;10.70;1.00
8487;DHT22;4280;50.534;8.708;2024-03-25T15:45:42;10.70;1.00
8487;DHT22;4280;50.534;8.708;2024-03-25T15:48:08;10.60;1.00
8487;DHT22;4280;50.534;8.708;2024-03-25T15:50:35;10.60;1.00
8487;DHT22;4280;50.534;8.708;2024-03-25T15:53:00;10.50;1.00
8487;DHT22;4280;50.534;8.708;2024-03-25T15:55:26;10.40;1.00
8487;DHT22;4280;50.534;8.708;2024-03-25T15:57:53;10.40;1.00
8487;DHT22;4280;50.534;8.708;2024-03-25T16:00:19;10.30;1.00
8487;DHT22;4280;50.534;8.708;2024-03-25T16:02:45;10.30;1.00
8487;DHT22;4280;50.534;8.708;2024-03-25T16:05:13;10.30;1.00
8487;DHT22;4280;50.534;8.708;2024-03-25T16:07:39;10.30;1.00
8487;DHT22;4280;50.534;8.708;2024-03-25T16:10:05;10.30;1.00
8487;DHT22;4280;50.534;8.708;2024-03-25T16:12:32;10.30;1.00
8487;DHT22;4280;50.534;8.708;2024-03-25T16:14:59;10.30;1.00
8487;DHT22;4280;50.534;8.708;2024-03-25T16:17:25;10.30;1.00
8487;DHT22;4280;50.534;8.708;2024-03-25T16:19:51;10.20;1.00
8487;DHT22;4280;50.534;8.708;2024-03-25T16:22:17;10.20;1.00
8487;DHT22;4280;50.534;8.708;2024-03-25T16:24:43;10.10;1.00
8487;DHT22;4280;50.534;8.708;2024-03-25T16:27:08;9.90;1.00